sensor_id;sensor_type;location;lat;lon;timestamp;P1;durP1;ratioP1;P2;durP2;ratioP2
47589;SDS011;33316;52.298;9.056;2023-04-24T00:00:35;0.50;;;0.30;;
47589;SDS011;33316;52.298;9.056;2023-04-24T00:03:03;0.65;;;0.30;;
47589;SDS011;33316;52.298;9.056;2023-04-24T00:05:31;0.30;;;0.28;;
47589;SDS011;33316;52.298;9.056;2023-04-24T00:07:59;0.60;;;0.30;;
47589;SDS011;33316;52.298;9.056;2023-04-24T00:10:25;0.35;;;0.28;;
47589;SDS011;33316;52.298;9.056;2023-04-24T00:12:52;0.35;;;0.30;;
47589;SDS011;33316;52.298;9.056;2023-04-24T00:15:19;0.50;;;0.30;;
47589;SDS011;33316;52.298;9.056;2023-04-24T00:17:45;0.30;;;0.30;;
47589;SDS011;33316;52.298;9.056;2023-04-24T00:20:12;1.42;;;0.40;;
47589;SDS011;33316;52.298;9.056;2023-04-24T00:22:39;0.40;;;0.40;;
47589;SDS011;33316;52.298;9.056;2023-04-24T00:25:08;0.68;;;0.30;;
47589;SDS011;33316;52.298;9.056;2023-04-24T00:27:35;0.93;;;0.30;;
47589;SDS011;33316;52.298;9.056;2023-04-24T00:30:02;0.45;;;0.20;;
47589;SDS011;33316;52.298;9.056;2023-04-24T00:32:30;0.73;;;0.30;;
47589;SDS011;33316;52.298;9.056;2023-04-24T00:34:56;0.10;;;0.10;;
47589;SDS011;33316;52.298;9.056;2023-04-24T00:37:23;0.80;;;0.25;;
47589;SDS011;33316;52.298;9.056;2023-04-24T00:39:50;0.75;;;0.10;;
47589;SDS011;33316;52.298;9.056;2023-04-24T00:42:18;0.52;;;0.25;;
47589;SDS011;33316;52.298;9.056;2023-04-24T00:44:45;0.22;;;0.20;;
47589;SDS011;33316;52.298;9.056;2023-04-24T00:47:12;0.40;;;0.10;;
47589;SDS011;33316;52.298;9.056;2023-04-24T00:49:40;0.20;;;0.20;;
47589;SDS011;33316;52.298;9.056;2023-04-24T00:52:06;0.17;;;0.10;;
47589;SDS011;33316;52.298;9.056;2023-04-24T00:54:33;0.10;;;0.10;;
47589;SDS011;33316;52.298;9.056;2023-04-24T00:57:00;0.30;;;0.30;;
47589;SDS011;33316;52.298;9.056;2023-04-24T00:59:28;0.25;;;0.10;;
47589;SDS011;33316;52.298;9.056;2023-04-24T01:01:55;0.10;;;0.10;;
47589;SDS011;33316;52.298;9.056;2023-04-24T01:04:22;0.10;;;0.10;;
47589;SDS011;33316;52.298;9.056;2023-04-24T01:06:51;0.10;;;0.10;;
47589;SDS011;33316;52.298;9.056;2023-04-24T01:09:18;0.00;;;0.00;;
47589;SDS011;33316;52.298;9.056;2023-04-24T01:11:47;1.08;;;0.10;;
47589;SDS011;33316;52.298;9.056;2023-04-24T01:14:14;0.40;;;0.30;;
47589;SDS011;33316;52.298;9.056;2023-04-24T01:16:42;0.35;;;0.20;;
47589;SDS011;33316;52.298;9.056;2023-04-24T01:19:09;0.10;;;0.10;;
47589;SDS011;33316;52.298;9.056;2023-04-24T01:21:36;0.35;;;0.15;;
47589;SDS011;33316;52.298;9.056;2023-04-24T01:24:05;0.30;;;0.10;;
47589;SDS011;33316;52.298;9.056;2023-04-24T01:26:32;0.55;;;0.10;;
47589;SDS011;33316;52.298;9.056;2023-04-24T01:28:59;1.67;;;0.10;;
47589;SDS011;33316;52.298;9.056;2023-04-24T01:31:26;0.05;;;0.00;;
47589;SDS011;33316;52.298;9.056;2023-04-24T01:33:54;0.85;;;0.30;;
47589;SDS011;33316;52.298;9.056;2023-04-24T01:36:22;0.55;;;0.10;;
47589;SDS011;33316;52.298;9.056;2023-04-24T01:38:50;0.10;;;0.10;;
47589;SDS011;33316;52.298;9.056;2023-04-24T01:41:18;0.75;;;0.20;;
47589;SDS011;33316;52.298;9.056;2023-04-24T01:43:45;0.10;;;0.10;;
47589;SDS011;33316;52.298;9.056;2023-04-24T01:46:12;0.20;;;0.20;;
47589;SDS011;33316;52.298;9.056;2023-04-24T01:48:38;2.78;;;0.38;;
47589;SDS011;33316;52.298;9.056;2023-04-24T01:51:06;0.20;;;0.15;;
47589;SDS011;33316;52.298;9.056;2023-04-24T01:53:32;0.85;;;0.22;;
47589;SDS011;33316;52.298;9.056;2023-04-24T01:55:59;0.35;;;0.20;;
47589;SDS011;33316;52.298;9.056;2023-04-24T01:58:28;0.95;;;0.32;;
47589;SDS011;33316;52.298;9.056;2023-04-24T02:00:55;0.20;;;0.20;;
47589;SDS011;33316;52.298;9.056;2023-04-24T02:03:22;0.45;;;0.28;;
47589;SDS011;33316;52.298;9.056;2023-04-24T02:05:49;0.40;;;0.30;;
47589;SDS011;33316;52.298;9.056;2023-04-24T02:08:16;0.50;;;0.30;;
47589;SDS011;33316;52.298;9.056;2023-04-24T02:10:42;0.47;;;0.30;;
47589;SDS011;33316;52.298;9.056;2023-04-24T02:13:09;0.28;;;0.28;;
47589;SDS011;33316;52.298;9.056;2023-04-24T02:15:37;0.20;;;0.20;;
47589;SDS011;33316;52.298;9.056;2023-04-24T02:18:04;0.40;;;0.30;;
47589;SDS011;33316;52.298;9.056;2023-04-24T02:20:31;0.55;;;0.22;;
47589;SDS011;33316;52.298;9.056;2023-04-24T02:22:59;0.30;;;0.30;;
47589;SDS011;33316;52.298;9.056;2023-04-24T02:25:25;0.25;;;0.15;;
47589;SDS011;33316;52.298;9.056;2023-04-24T02:27:52;0.38;;;0.20;;
47589;SDS011;33316;52.298;9.056;2023-04-24T02:30:19;0.22;;;0.17;;
47589;SDS011;33316;52.298;9.056;2023-04-24T02:32:47;0.20;;;0.15;;
47589;SDS011;33316;52.298;9.056;2023-04-24T02:35:14;0.43;;;0.30;;
47589;SDS011;33316;52.298;9.056;2023-04-24T02:37:41;1.00;;;0.30;;
47589;SDS011;33316;52.298;9.056;2023-04-24T02:40:08;0.55;;;0.30;;
47589;SDS011;33316;52.298;9.056;2023-04-24T02:42:35;0.32;;;0.20;;
47589;SDS011;33316;52.298;9.056;2023-04-24T02:45:02;0.20;;;0.20;;
47589;SDS011;33316;52.298;9.056;2023-04-24T02:47:30;0.30;;;0.30;;
47589;SDS011;33316;52.298;9.056;2023-04-24T02:49:58;0.40;;;0.30;;
47589;SDS011;33316;52.298;9.056;2023-04-24T02:52:24;0.50;;;0.32;;
47589;SDS011;33316;52.298;9.056;2023-04-24T02:54:51;1.00;;;0.40;;
47589;SDS011;33316;52.298;9.056;2023-04-24T02:57:18;0.63;;;0.50;;
47589;SDS011;33316;52.298;9.056;2023-04-24T02:59:45;0.47;;;0.40;;
47589;SDS011;33316;52.298;9.056;2023-04-24T03:02:11;0.65;;;0.40;;
47589;SDS011;33316;52.298;9.056;2023-04-24T03:04:38;1.05;;;0.50;;
47589;SDS011;33316;52.298;9.056;2023-04-24T03:07:09;0.55;;;0.40;;
47589;SDS011;33316;52.298;9.056;2023-04-24T03:09:35;0.82;;;0.50;;
47589;SDS011;33316;52.298;9.056;2023-04-24T03:12:02;0.68;;;0.45;;
47589;SDS011;33316;52.298;9.056;2023-04-24T03:14:29;0.40;;;0.32;;
47589;SDS011;33316;52.298;9.056;2023-04-24T03:16:56;0.85;;;0.50;;
47589;SDS011;33316;52.298;9.056;2023-04-24T03:19:22;0.30;;;0.30;;
47589;SDS011;33316;52.298;9.056;2023-04-24T03:21:49;3.22;;;1.45;;
47589;SDS011;33316;52.298;9.056;2023-04-24T03:24:17;1.38;;;0.90;;
47589;SDS011;33316;52.298;9.056;2023-04-24T03:26:44;1.90;;;0.70;;
47589;SDS011;33316;52.298;9.056;2023-04-24T03:29:10;1.05;;;0.40;;
47589;SDS011;33316;52.298;9.056;2023-04-24T03:31:37;0.40;;;0.40;;
47589;SDS011;33316;52.298;9.056;2023-04-24T03:34:03;1.63;;;0.82;;
47589;SDS011;33316;52.298;9.056;2023-04-24T03:36:30;1.75;;;0.60;;
47589;SDS011;33316;52.298;9.056;2023-04-24T03:38:57;0.43;;;0.43;;
47589;SDS011;33316;52.298;9.056;2023-04-24T03:41:25;0.20;;;0.20;;
47589;SDS011;33316;52.298;9.056;2023-04-24T03:43:51;0.30;;;0.30;;
47589;SDS011;33316;52.298;9.056;2023-04-24T03:46:18;2.08;;;0.47;;
47589;SDS011;33316;52.298;9.056;2023-04-24T03:48:45;0.82;;;0.50;;
47589;SDS011;33316;52.298;9.056;2023-04-24T03:51:11;0.50;;;0.50;;
47589;SDS011;33316;52.298;9.056;2023-04-24T03:53:38;1.25;;;0.52;;
47589;SDS011;33316;52.298;9.056;2023-04-24T03:56:05;0.47;;;0.40;;
47589;SDS011;33316;52.298;9.056;2023-04-24T03:58:33;3.22;;;0.90;;
47589;SDS011;33316;52.298;9.056;2023-04-24T04:01:00;0.43;;;0.35;;
47589;SDS011;33316;52.298;9.056;2023-04-24T04:03:27;1.50;;;0.50;;
47589;SDS011;33316;52.298;9.056;2023-04-24T04:05:54;0.60;;;0.32;;
47589;SDS011;33316;52.298;9.056;2023-04-24T04:08:21;1.02;;;0.50;;
47589;SDS011;33316;52.298;9.056;2023-04-24T04:10:47;0.38;;;0.30;;
47589;SDS011;33316;52.298;9.056;2023-04-24T04:13:14;0.60;;;0.30;;
47589;SDS011;33316;52.298;9.056;2023-04-24T04:15:42;0.90;;;0.40;;
47589;SDS011;33316;52.298;9.056;2023-04-24T04:18:08;1.27;;;0.30;;
47589;SDS011;33316;52.298;9.056;2023-04-24T04:20:35;0.63;;;0.38;;
47589;SDS011;33316;52.298;9.056;2023-04-24T04:23:02;0.60;;;0.40;;
47589;SDS011;33316;52.298;9.056;2023-04-24T04:25:28;0.40;;;0.40;;
47589;SDS011;33316;52.298;9.056;2023-04-24T04:27:55;1.05;;;0.40;;
47589;SDS011;33316;52.298;9.056;2023-04-24T04:30:23;1.25;;;0.40;;
47589;SDS011;33316;52.298;9.056;2023-04-24T04:32:52;0.88;;;0.40;;
47589;SDS011;33316;52.298;9.056;2023-04-24T04:35:18;0.90;;;0.35;;
47589;SDS011;33316;52.298;9.056;2023-04-24T04:37:45;0.30;;;0.30;;
47589;SDS011;33316;52.298;9.056;2023-04-24T04:40:12;1.00;;;0.50;;
47589;SDS011;33316;52.298;9.056;2023-04-24T04:42:38;0.88;;;0.35;;
47589;SDS011;33316;52.298;9.056;2023-04-24T04:45:06;0.60;;;0.50;;
47589;SDS011;33316;52.298;9.056;2023-04-24T04:47:36;0.82;;;0.47;;
47589;SDS011;33316;52.298;9.056;2023-04-24T04:50:06;1.17;;;0.50;;
47589;SDS011;33316;52.298;9.056;2023-04-24T04:52:33;1.05;;;0.50;;
47589;SDS011;33316;52.298;9.056;2023-04-24T04:55:00;1.45;;;0.60;;
47589;SDS011;33316;52.298;9.056;2023-04-24T04:57:26;0.55;;;0.40;;
47589;SDS011;33316;52.298;9.056;2023-04-24T04:59:53;0.63;;;0.40;;
47589;SDS011;33316;52.298;9.056;2023-04-24T05:02:20;0.70;;;0.47;;
47589;SDS011;33316;52.298;9.056;2023-04-24T05:04:46;0.60;;;0.55;;
47589;SDS011;33316;52.298;9.056;2023-04-24T05:07:14;0.68;;;0.43;;
47589;SDS011;33316;52.298;9.056;2023-04-24T05:09:41;0.40;;;0.32;;
47589;SDS011;33316;52.298;9.056;2023-04-24T05:12:08;0.63;;;0.40;;
47589;SDS011;33316;52.298;9.056;2023-04-24T05:14:35;1.77;;;0.50;;
47589;SDS011;33316;52.298;9.056;2023-04-24T05:17:02;1.25;;;0.80;;
47589;SDS011;33316;52.298;9.056;2023-04-24T05:19:29;0.77;;;0.63;;
47589;SDS011;33316;52.298;9.056;2023-04-24T05:21:57;0.70;;;0.60;;
47589;SDS011;33316;52.298;9.056;2023-04-24T05:24:25;1.88;;;0.60;;
47589;SDS011;33316;52.298;9.056;2023-04-24T05:26:52;1.40;;;0.70;;
47589;SDS011;33316;52.298;9.056;2023-04-24T05:29:19;0.80;;;0.57;;
47589;SDS011;33316;52.298;9.056;2023-04-24T05:31:46;1.05;;;0.60;;
47589;SDS011;33316;52.298;9.056;2023-04-24T05:34:12;1.55;;;0.77;;
47589;SDS011;33316;52.298;9.056;2023-04-24T05:36:41;1.02;;;0.73;;
47589;SDS011;33316;52.298;9.056;2023-04-24T05:39:07;0.65;;;0.65;;
47589;SDS011;33316;52.298;9.056;2023-04-24T05:41:35;1.10;;;0.85;;
47589;SDS011;33316;52.298;9.056;2023-04-24T05:44:02;1.27;;;1.08;;
47589;SDS011;33316;52.298;9.056;2023-04-24T05:46:29;2.88;;;1.15;;
47589;SDS011;33316;52.298;9.056;2023-04-24T05:48:55;2.00;;;1.40;;
47589;SDS011;33316;52.298;9.056;2023-04-24T05:51:22;2.00;;;1.75;;
47589;SDS011;33316;52.298;9.056;2023-04-24T05:53:49;3.85;;;2.13;;
47589;SDS011;33316;52.298;9.056;2023-04-24T05:56:16;3.10;;;2.65;;
47589;SDS011;33316;52.298;9.056;2023-04-24T05:58:44;4.47;;;2.65;;
47589;SDS011;33316;52.298;9.056;2023-04-24T06:01:11;4.97;;;2.78;;
47589;SDS011;33316;52.298;9.056;2023-04-24T06:03:39;3.20;;;2.45;;
47589;SDS011;33316;52.298;9.056;2023-04-24T06:06:06;3.95;;;2.67;;
47589;SDS011;33316;52.298;9.056;2023-04-24T06:08:34;3.58;;;2.80;;
47589;SDS011;33316;52.298;9.056;2023-04-24T06:11:01;4.75;;;2.67;;
47589;SDS011;33316;52.298;9.056;2023-04-24T06:13:28;4.38;;;2.67;;
47589;SDS011;33316;52.298;9.056;2023-04-24T06:15:56;4.22;;;2.72;;
47589;SDS011;33316;52.298;9.056;2023-04-24T06:18:22;3.75;;;2.90;;
47589;SDS011;33316;52.298;9.056;2023-04-24T06:20:49;4.97;;;3.42;;
47589;SDS011;33316;52.298;9.056;2023-04-24T06:23:16;4.95;;;3.13;;
47589;SDS011;33316;52.298;9.056;2023-04-24T06:25:43;3.60;;;2.75;;
47589;SDS011;33316;52.298;9.056;2023-04-24T06:28:10;6.43;;;3.22;;
47589;SDS011;33316;52.298;9.056;2023-04-24T06:30:36;5.80;;;3.17;;
47589;SDS011;33316;52.298;9.056;2023-04-24T06:33:04;4.90;;;3.00;;
47589;SDS011;33316;52.298;9.056;2023-04-24T06:35:31;3.58;;;2.63;;
47589;SDS011;33316;52.298;9.056;2023-04-24T06:37:58;5.38;;;3.45;;
47589;SDS011;33316;52.298;9.056;2023-04-24T06:40:24;4.65;;;3.58;;
47589;SDS011;33316;52.298;9.056;2023-04-24T06:42:51;4.90;;;3.53;;
47589;SDS011;33316;52.298;9.056;2023-04-24T06:45:18;4.55;;;3.38;;
47589;SDS011;33316;52.298;9.056;2023-04-24T06:47:44;4.03;;;3.17;;
47589;SDS011;33316;52.298;9.056;2023-04-24T06:50:12;4.32;;;3.47;;
47589;SDS011;33316;52.298;9.056;2023-04-24T06:52:40;4.38;;;3.65;;
47589;SDS011;33316;52.298;9.056;2023-04-24T06:55:07;3.58;;;3.22;;
47589;SDS011;33316;52.298;9.056;2023-04-24T06:57:35;5.95;;;4.22;;
47589;SDS011;33316;52.298;9.056;2023-04-24T07:00:02;5.22;;;4.10;;
47589;SDS011;33316;52.298;9.056;2023-04-24T07:02:47;7.10;;;5.03;;
47589;SDS011;33316;52.298;9.056;2023-04-24T07:05:15;7.25;;;4.18;;
47589;SDS011;33316;52.298;9.056;2023-04-24T07:07:45;5.93;;;4.30;;
47589;SDS011;33316;52.298;9.056;2023-04-24T07:10:12;5.60;;;4.20;;
47589;SDS011;33316;52.298;9.056;2023-04-24T07:12:39;7.30;;;4.97;;
47589;SDS011;33316;52.298;9.056;2023-04-24T07:15:06;7.05;;;5.32;;
47589;SDS011;33316;52.298;9.056;2023-04-24T07:17:34;7.25;;;4.20;;
47589;SDS011;33316;52.298;9.056;2023-04-24T07:20:01;6.10;;;4.55;;
47589;SDS011;33316;52.298;9.056;2023-04-24T07:22:29;7.88;;;4.43;;
47589;SDS011;33316;52.298;9.056;2023-04-24T07:24:56;6.68;;;5.05;;
47589;SDS011;33316;52.298;9.056;2023-04-24T07:27:22;7.03;;;4.78;;
47589;SDS011;33316;52.298;9.056;2023-04-24T07:29:49;8.48;;;4.97;;
47589;SDS011;33316;52.298;9.056;2023-04-24T07:32:18;7.68;;;4.93;;
47589;SDS011;33316;52.298;9.056;2023-04-24T07:34:47;7.30;;;4.88;;
47589;SDS011;33316;52.298;9.056;2023-04-24T07:37:14;5.63;;;4.13;;
47589;SDS011;33316;52.298;9.056;2023-04-24T07:39:42;4.80;;;3.95;;
47589;SDS011;33316;52.298;9.056;2023-04-24T07:42:09;6.82;;;4.93;;
47589;SDS011;33316;52.298;9.056;2023-04-24T07:44:36;7.00;;;5.20;;
47589;SDS011;33316;52.298;9.056;2023-04-24T07:47:05;7.47;;;5.20;;
47589;SDS011;33316;52.298;9.056;2023-04-24T07:49:32;6.30;;;5.07;;
47589;SDS011;33316;52.298;9.056;2023-04-24T07:51:59;7.28;;;5.38;;
47589;SDS011;33316;52.298;9.056;2023-04-24T07:54:27;8.15;;;4.80;;
47589;SDS011;33316;52.298;9.056;2023-04-24T07:56:56;6.53;;;4.30;;
47589;SDS011;33316;52.298;9.056;2023-04-24T07:59:26;5.18;;;4.43;;
47589;SDS011;33316;52.298;9.056;2023-04-24T08:01:52;5.53;;;3.95;;
47589;SDS011;33316;52.298;9.056;2023-04-24T08:04:19;5.97;;;4.40;;
47589;SDS011;33316;52.298;9.056;2023-04-24T08:06:47;6.75;;;4.53;;
47589;SDS011;33316;52.298;9.056;2023-04-24T08:09:15;6.28;;;4.53;;
47589;SDS011;33316;52.298;9.056;2023-04-24T08:11:47;5.00;;;4.05;;
47589;SDS011;33316;52.298;9.056;2023-04-24T08:14:15;4.80;;;3.75;;
47589;SDS011;33316;52.298;9.056;2023-04-24T08:16:44;6.53;;;3.63;;
47589;SDS011;33316;52.298;9.056;2023-04-24T08:19:11;5.00;;;3.28;;
47589;SDS011;33316;52.298;9.056;2023-04-24T08:21:38;4.43;;;3.55;;
47589;SDS011;33316;52.298;9.056;2023-04-24T08:24:05;4.55;;;3.78;;
47589;SDS011;33316;52.298;9.056;2023-04-24T08:26:33;4.85;;;3.85;;
47589;SDS011;33316;52.298;9.056;2023-04-24T08:28:59;5.63;;;3.65;;
47589;SDS011;33316;52.298;9.056;2023-04-24T08:31:28;4.72;;;3.47;;
47589;SDS011;33316;52.298;9.056;2023-04-24T08:33:54;5.20;;;3.70;;
47589;SDS011;33316;52.298;9.056;2023-04-24T08:36:21;6.82;;;4.20;;
47589;SDS011;33316;52.298;9.056;2023-04-24T08:38:48;4.70;;;3.55;;
47589;SDS011;33316;52.298;9.056;2023-04-24T08:41:15;4.43;;;3.30;;
47589;SDS011;33316;52.298;9.056;2023-04-24T08:43:43;5.80;;;3.67;;
47589;SDS011;33316;52.298;9.056;2023-04-24T08:46:12;3.75;;;3.22;;
47589;SDS011;33316;52.298;9.056;2023-04-24T08:48:42;5.70;;;3.78;;
47589;SDS011;33316;52.298;9.056;2023-04-24T08:51:09;4.45;;;3.13;;
47589;SDS011;33316;52.298;9.056;2023-04-24T08:53:36;3.67;;;3.00;;
47589;SDS011;33316;52.298;9.056;2023-04-24T08:56:03;4.90;;;3.15;;
47589;SDS011;33316;52.298;9.056;2023-04-24T08:58:31;4.93;;;3.15;;
47589;SDS011;33316;52.298;9.056;2023-04-24T09:00:57;4.22;;;2.95;;
47589;SDS011;33316;52.298;9.056;2023-04-24T09:03:25;4.28;;;2.60;;
47589;SDS011;33316;52.298;9.056;2023-04-24T09:05:54;2.92;;;2.38;;
47589;SDS011;33316;52.298;9.056;2023-04-24T09:08:23;3.40;;;2.30;;
47589;SDS011;33316;52.298;9.056;2023-04-24T09:10:51;4.20;;;2.70;;
47589;SDS011;33316;52.298;9.056;2023-04-24T09:13:18;2.97;;;2.60;;
47589;SDS011;33316;52.298;9.056;2023-04-24T09:15:45;2.85;;;2.35;;
47589;SDS011;33316;52.298;9.056;2023-04-24T09:18:12;4.00;;;2.70;;
47589;SDS011;33316;52.298;9.056;2023-04-24T09:23:26;3.35;;;2.38;;
47589;SDS011;33316;52.298;9.056;2023-04-24T09:25:54;2.95;;;2.35;;
47589;SDS011;33316;52.298;9.056;2023-04-24T09:28:24;2.95;;;2.15;;
47589;SDS011;33316;52.298;9.056;2023-04-24T09:31:02;2.17;;;1.60;;
47589;SDS011;33316;52.298;9.056;2023-04-24T09:33:33;2.70;;;1.70;;
47589;SDS011;33316;52.298;9.056;2023-04-24T09:36:02;1.88;;;1.60;;
47589;SDS011;33316;52.298;9.056;2023-04-24T09:38:32;2.08;;;1.20;;
47589;SDS011;33316;52.298;9.056;2023-04-24T09:41:00;1.27;;;1.10;;
47589;SDS011;33316;52.298;9.056;2023-04-24T09:43:28;1.92;;;1.20;;
47589;SDS011;33316;52.298;9.056;2023-04-24T09:45:56;1.83;;;1.40;;
47589;SDS011;33316;52.298;9.056;2023-04-24T09:48:29;1.65;;;1.20;;
47589;SDS011;33316;52.298;9.056;2023-04-24T09:50:57;2.13;;;0.90;;
47589;SDS011;33316;52.298;9.056;2023-04-24T09:53:25;1.10;;;1.00;;
47589;SDS011;33316;52.298;9.056;2023-04-24T09:55:52;1.35;;;1.02;;
47589;SDS011;33316;52.298;9.056;2023-04-24T09:58:18;1.27;;;1.17;;
47589;SDS011;33316;52.298;9.056;2023-04-24T10:00:53;1.30;;;1.00;;
47589;SDS011;33316;52.298;9.056;2023-04-24T10:03:20;1.30;;;0.90;;
47589;SDS011;33316;52.298;9.056;2023-04-24T10:05:47;1.38;;;0.95;;
47589;SDS011;33316;52.298;9.056;2023-04-24T10:08:14;1.38;;;0.95;;
47589;SDS011;33316;52.298;9.056;2023-04-24T10:10:42;1.52;;;0.73;;
47589;SDS011;33316;52.298;9.056;2023-04-24T10:13:10;1.83;;;0.95;;
47589;SDS011;33316;52.298;9.056;2023-04-24T10:15:38;1.38;;;1.00;;
47589;SDS011;33316;52.298;9.056;2023-04-24T10:18:06;0.70;;;0.70;;
47589;SDS011;33316;52.298;9.056;2023-04-24T10:20:34;1.13;;;0.90;;
47589;SDS011;33316;52.298;9.056;2023-04-24T10:23:02;1.33;;;1.08;;
47589;SDS011;33316;52.298;9.056;2023-04-24T10:25:31;1.75;;;1.02;;
47589;SDS011;33316;52.298;9.056;2023-04-24T10:28:01;1.50;;;1.20;;
47589;SDS011;33316;52.298;9.056;2023-04-24T10:30:29;1.55;;;0.90;;
47589;SDS011;33316;52.298;9.056;2023-04-24T10:32:59;0.95;;;0.75;;
47589;SDS011;33316;52.298;9.056;2023-04-24T10:35:26;1.40;;;0.80;;
47589;SDS011;33316;52.298;9.056;2023-04-24T10:37:58;2.13;;;0.80;;
47589;SDS011;33316;52.298;9.056;2023-04-24T10:40:30;1.10;;;0.75;;
47589;SDS011;33316;52.298;9.056;2023-04-24T10:42:58;0.90;;;0.60;;
47589;SDS011;33316;52.298;9.056;2023-04-24T10:45:26;0.95;;;0.75;;
47589;SDS011;33316;52.298;9.056;2023-04-24T10:47:54;1.15;;;0.75;;
47589;SDS011;33316;52.298;9.056;2023-04-24T10:50:23;1.42;;;0.90;;
47589;SDS011;33316;52.298;9.056;2023-04-24T10:52:51;0.82;;;0.70;;
47589;SDS011;33316;52.298;9.056;2023-04-24T10:58:07;0.75;;;0.70;;
47589;SDS011;33316;52.298;9.056;2023-04-24T11:00:37;2.60;;;0.85;;
47589;SDS011;33316;52.298;9.056;2023-04-24T11:03:04;3.75;;;0.60;;
47589;SDS011;33316;52.298;9.056;2023-04-24T11:05:51;0.60;;;0.60;;
47589;SDS011;33316;52.298;9.056;2023-04-24T11:08:23;1.30;;;0.77;;
47589;SDS011;33316;52.298;9.056;2023-04-24T11:10:55;0.52;;;0.50;;
47589;SDS011;33316;52.298;9.056;2023-04-24T11:13:23;1.58;;;0.65;;
47589;SDS011;33316;52.298;9.056;2023-04-24T11:18:45;0.40;;;0.40;;
47589;SDS011;33316;52.298;9.056;2023-04-24T11:21:19;0.55;;;0.40;;
47589;SDS011;33316;52.298;9.056;2023-04-24T11:23:46;0.80;;;0.45;;
47589;SDS011;33316;52.298;9.056;2023-04-24T11:26:17;0.50;;;0.40;;
47589;SDS011;33316;52.298;9.056;2023-04-24T11:28:45;0.38;;;0.38;;
47589;SDS011;33316;52.298;9.056;2023-04-24T11:34:07;0.40;;;0.30;;
47589;SDS011;33316;52.298;9.056;2023-04-24T11:36:35;0.30;;;0.28;;
47589;SDS011;33316;52.298;9.056;2023-04-24T11:39:02;0.93;;;0.50;;
47589;SDS011;33316;52.298;9.056;2023-04-24T11:41:30;1.20;;;0.70;;
47589;SDS011;33316;52.298;9.056;2023-04-24T11:43:57;0.60;;;0.47;;
47589;SDS011;33316;52.298;9.056;2023-04-24T11:46:27;0.90;;;0.60;;
47589;SDS011;33316;52.298;9.056;2023-04-24T11:48:58;2.22;;;0.70;;
47589;SDS011;33316;52.298;9.056;2023-04-24T11:51:25;1.40;;;0.70;;
47589;SDS011;33316;52.298;9.056;2023-04-24T11:53:53;1.55;;;0.70;;
47589;SDS011;33316;52.298;9.056;2023-04-24T11:56:20;2.83;;;0.98;;
47589;SDS011;33316;52.298;9.056;2023-04-24T11:58:47;0.98;;;0.85;;
47589;SDS011;33316;52.298;9.056;2023-04-24T12:01:14;1.00;;;0.90;;
47589;SDS011;33316;52.298;9.056;2023-04-24T12:03:41;1.60;;;1.15;;
47589;SDS011;33316;52.298;9.056;2023-04-24T12:06:12;1.15;;;0.90;;
47589;SDS011;33316;52.298;9.056;2023-04-24T12:08:39;3.63;;;1.50;;
47589;SDS011;33316;52.298;9.056;2023-04-24T12:11:06;1.40;;;1.10;;
47589;SDS011;33316;52.298;9.056;2023-04-24T12:13:33;1.17;;;1.00;;
47589;SDS011;33316;52.298;9.056;2023-04-24T12:16:01;1.17;;;0.98;;
47589;SDS011;33316;52.298;9.056;2023-04-24T12:18:29;1.10;;;0.90;;
47589;SDS011;33316;52.298;9.056;2023-04-24T12:21:03;1.10;;;0.80;;
47589;SDS011;33316;52.298;9.056;2023-04-24T12:23:42;0.98;;;0.77;;
47589;SDS011;33316;52.298;9.056;2023-04-24T12:26:09;0.80;;;0.80;;
47589;SDS011;33316;52.298;9.056;2023-04-24T12:28:36;1.48;;;0.90;;
47589;SDS011;33316;52.298;9.056;2023-04-24T12:31:03;0.85;;;0.70;;
47589;SDS011;33316;52.298;9.056;2023-04-24T12:33:32;1.23;;;1.00;;
47589;SDS011;33316;52.298;9.056;2023-04-24T12:35:59;1.38;;;0.80;;
47589;SDS011;33316;52.298;9.056;2023-04-24T12:38:28;1.55;;;0.60;;
47589;SDS011;33316;52.298;9.056;2023-04-24T12:41:02;0.50;;;0.40;;
47589;SDS011;33316;52.298;9.056;2023-04-24T12:43:30;0.43;;;0.32;;
47589;SDS011;33316;52.298;9.056;2023-04-24T12:45:57;0.40;;;0.40;;
47589;SDS011;33316;52.298;9.056;2023-04-24T12:48:24;0.30;;;0.30;;
47589;SDS011;33316;52.298;9.056;2023-04-24T12:50:51;2.17;;;0.40;;
47589;SDS011;33316;52.298;9.056;2023-04-24T12:53:17;0.77;;;0.40;;
47589;SDS011;33316;52.298;9.056;2023-04-24T12:55:45;0.30;;;0.30;;
47589;SDS011;33316;52.298;9.056;2023-04-24T12:58:17;0.43;;;0.40;;
47589;SDS011;33316;52.298;9.056;2023-04-24T13:00:44;0.35;;;0.30;;
47589;SDS011;33316;52.298;9.056;2023-04-24T13:03:11;1.00;;;0.30;;
47589;SDS011;33316;52.298;9.056;2023-04-24T13:05:38;0.40;;;0.30;;
47589;SDS011;33316;52.298;9.056;2023-04-24T13:08:05;1.13;;;0.50;;
47589;SDS011;33316;52.298;9.056;2023-04-24T13:10:31;1.52;;;0.40;;
47589;SDS011;33316;52.298;9.056;2023-04-24T13:12:59;0.43;;;0.43;;
47589;SDS011;33316;52.298;9.056;2023-04-24T13:15:26;0.80;;;0.60;;
47589;SDS011;33316;52.298;9.056;2023-04-24T13:17:53;0.80;;;0.60;;
47589;SDS011;33316;52.298;9.056;2023-04-24T13:20:20;2.08;;;0.68;;
47589;SDS011;33316;52.298;9.056;2023-04-24T13:22:46;1.38;;;0.70;;
47589;SDS011;33316;52.298;9.056;2023-04-24T13:25:13;0.90;;;0.60;;
47589;SDS011;33316;52.298;9.056;2023-04-24T13:27:41;0.70;;;0.50;;
47589;SDS011;33316;52.298;9.056;2023-04-24T13:30:10;2.67;;;0.70;;
47589;SDS011;33316;52.298;9.056;2023-04-24T13:32:37;1.02;;;0.60;;
47589;SDS011;33316;52.298;9.056;2023-04-24T13:35:04;0.80;;;0.60;;
47589;SDS011;33316;52.298;9.056;2023-04-24T13:37:31;1.25;;;0.75;;
47589;SDS011;33316;52.298;9.056;2023-04-24T13:39:58;0.90;;;0.70;;
47589;SDS011;33316;52.298;9.056;2023-04-24T13:42:24;1.67;;;0.80;;
47589;SDS011;33316;52.298;9.056;2023-04-24T13:44:51;1.55;;;0.90;;
47589;SDS011;33316;52.298;9.056;2023-04-24T13:47:20;1.92;;;1.10;;
47589;SDS011;33316;52.298;9.056;2023-04-24T13:49:46;2.15;;;1.33;;
47589;SDS011;33316;52.298;9.056;2023-04-24T13:52:13;1.92;;;1.13;;
47589;SDS011;33316;52.298;9.056;2023-04-24T13:54:40;1.80;;;1.33;;
47589;SDS011;33316;52.298;9.056;2023-04-24T13:57:07;1.92;;;1.00;;
47589;SDS011;33316;52.298;9.056;2023-04-24T13:59:33;2.05;;;1.20;;
47589;SDS011;33316;52.298;9.056;2023-04-24T14:02:00;2.35;;;1.10;;
47589;SDS011;33316;52.298;9.056;2023-04-24T14:04:28;2.63;;;1.40;;
47589;SDS011;33316;52.298;9.056;2023-04-24T14:06:55;2.38;;;1.40;;
47589;SDS011;33316;52.298;9.056;2023-04-24T14:09:22;2.72;;;1.48;;
47589;SDS011;33316;52.298;9.056;2023-04-24T14:11:49;2.05;;;1.50;;
47589;SDS011;33316;52.298;9.056;2023-04-24T14:14:18;3.45;;;1.40;;
47589;SDS011;33316;52.298;9.056;2023-04-24T14:16:45;2.20;;;1.30;;
47589;SDS011;33316;52.298;9.056;2023-04-24T14:19:12;3.75;;;1.30;;
47589;SDS011;33316;52.298;9.056;2023-04-24T14:21:40;2.78;;;1.40;;
47589;SDS011;33316;52.298;9.056;2023-04-24T14:24:06;6.43;;;2.00;;
47589;SDS011;33316;52.298;9.056;2023-04-24T14:26:34;2.35;;;1.40;;
47589;SDS011;33316;52.298;9.056;2023-04-24T14:29:00;5.40;;;2.03;;
47589;SDS011;33316;52.298;9.056;2023-04-24T14:31:27;3.53;;;1.40;;
47589;SDS011;33316;52.298;9.056;2023-04-24T14:33:54;3.53;;;1.40;;
47589;SDS011;33316;52.298;9.056;2023-04-24T14:36:20;3.45;;;1.45;;
47589;SDS011;33316;52.298;9.056;2023-04-24T14:38:48;4.38;;;1.60;;
47589;SDS011;33316;52.298;9.056;2023-04-24T14:41:15;4.28;;;1.50;;
47589;SDS011;33316;52.298;9.056;2023-04-24T14:43:42;3.63;;;1.52;;
47589;SDS011;33316;52.298;9.056;2023-04-24T14:46:08;1.88;;;1.55;;
47589;SDS011;33316;52.298;9.056;2023-04-24T14:48:35;3.28;;;1.48;;
47589;SDS011;33316;52.298;9.056;2023-04-24T14:51:03;5.20;;;1.98;;
47589;SDS011;33316;52.298;9.056;2023-04-24T14:53:30;3.60;;;1.48;;
47589;SDS011;33316;52.298;9.056;2023-04-24T14:55:58;3.67;;;1.63;;
47589;SDS011;33316;52.298;9.056;2023-04-24T14:58:25;6.28;;;1.70;;
47589;SDS011;33316;52.298;9.056;2023-04-24T15:00:51;3.42;;;1.67;;